Turner, Arkansas
Current Conditions -  °F | °C
As of 4:15 AM on Monday 26 Jan 2015 (Local Time) from KCKM Reporting Station
Overcast Overcast  
Wind Chill: 34°   Ceiling: 2600
Heat Index: 41°   Visibility: 10mi
Dew Point: 36°   Wind: 12mph
Humidity: 81%   Direction: 350°N
Pressure: 30.07"   Gusts: NA
Location:  34.48°N, 91.01°W
Report Text: KCKM 261015Z AUTO 35010KT 10SM OVC026 05/02 A3007 RMK AO1
Loading
Personal Weather Stations






























Interactive Weather Map New forecast layout! Learn more

10-Day Weather Forecast

Advertisements
Track Severe Weather on mobile